createdAt,value
2022-11-21T00:00:19.017Z,32.35
2022-11-21T00:02:45.916Z,32.38
2022-11-21T00:05:12.270Z,30.30
2022-11-21T00:07:38.584Z,30.60
2022-11-21T00:10:04.950Z,33.50
2022-11-21T00:12:32.654Z,31.15
2022-11-21T00:14:59.063Z,31.85
2022-11-21T00:17:25.340Z,32.95
2022-11-21T00:19:51.616Z,30.55
2022-11-21T00:22:18.180Z,29.83
2022-11-21T00:24:44.482Z,30.52
2022-11-21T00:27:10.773Z,30.63
2022-11-21T00:29:37.096Z,27.02
2022-11-21T00:32:03.404Z,30.60
2022-11-21T00:34:29.868Z,29.05
2022-11-21T00:36:56.405Z,27.15
2022-11-21T00:39:22.991Z,29.40
2022-11-21T00:41:49.407Z,28.17
2022-11-21T00:44:15.679Z,28.88
2022-11-21T00:46:41.984Z,27.75
2022-11-21T00:49:08.412Z,26.45
2022-11-21T00:51:34.723Z,28.58
2022-11-21T00:54:01.001Z,27.50
2022-11-21T00:56:27.295Z,26.80
2022-11-21T00:58:53.571Z,28.67
2022-11-21T01:01:20.000Z,28.95
2022-11-21T01:03:46.441Z,28.52
2022-11-21T01:06:12.815Z,27.48
2022-11-21T01:08:39.166Z,27.30
2022-11-21T01:11:05.678Z,27.13
2022-11-21T01:13:32.013Z,24.02
2022-11-21T01:15:58.528Z,26.45
2022-11-21T01:18:24.799Z,26.38
2022-11-21T01:20:51.069Z,26.05
2022-11-21T01:23:17.477Z,26.58
2022-11-21T01:25:43.752Z,26.20
2022-11-21T01:28:10.113Z,26.30
2022-11-21T01:30:36.433Z,26.08
2022-11-21T01:33:02.735Z,26.33
2022-11-21T01:35:29.137Z,23.45
2022-11-21T01:37:55.418Z,25.33
2022-11-21T01:40:21.902Z,26.73
2022-11-21T01:42:48.315Z,26.50
2022-11-21T01:45:14.539Z,24.40
2022-11-21T01:47:40.842Z,26.73
2022-11-21T01:50:11.785Z,25.90
2022-11-21T01:52:39.243Z,24.58
2022-11-21T01:55:05.668Z,24.95
2022-11-21T01:57:31.989Z,24.20
2022-11-21T01:59:58.294Z,27.50
2022-11-21T02:02:24.652Z,23.38
2022-11-21T02:04:50.963Z,25.10
2022-11-21T02:07:17.949Z,23.90
2022-11-21T02:09:46.985Z,23.83
2022-11-21T02:12:13.235Z,24.90
2022-11-21T02:14:39.712Z,24.75
2022-11-21T02:17:05.981Z,23.90
2022-11-21T02:19:32.292Z,23.67
2022-11-21T02:21:58.577Z,23.33
2022-11-21T02:24:24.919Z,23.83
2022-11-21T02:26:51.331Z,24.15
2022-11-21T02:29:17.560Z,25.27
2022-11-21T02:31:43.907Z,22.95
2022-11-21T02:34:10.229Z,24.92
2022-11-21T02:36:36.713Z,22.30
2022-11-21T02:39:03.191Z,22.98
2022-11-21T02:41:29.717Z,23.48
2022-11-21T02:43:56.029Z,21.83
2022-11-21T02:46:22.333Z,24.23
2022-11-21T02:48:48.673Z,23.05
2022-11-21T02:51:15.183Z,22.58
2022-11-21T02:53:41.463Z,23.45
2022-11-21T02:56:07.815Z,22.52
2022-11-21T02:58:34.627Z,20.75
2022-11-21T03:01:00.962Z,21.50
2022-11-21T03:03:27.316Z,21.83
2022-11-21T03:05:53.686Z,23.13
2022-11-21T03:08:19.995Z,23.80
2022-11-21T03:10:46.362Z,22.15
2022-11-21T03:13:12.673Z,21.35
2022-11-21T03:15:39.284Z,20.65
2022-11-21T03:18:05.544Z,21.02
2022-11-21T03:20:31.969Z,21.90
2022-11-21T03:22:58.261Z,21.60
2022-11-21T03:25:24.494Z,19.33
2022-11-21T03:27:50.833Z,22.65
2022-11-21T03:30:17.111Z,23.35
2022-11-21T03:32:43.372Z,20.83
2022-11-21T03:35:09.619Z,21.50
2022-11-21T03:37:35.908Z,20.98
2022-11-21T03:40:02.180Z,20.33
2022-11-21T03:42:28.476Z,22.83
2022-11-21T03:44:54.889Z,20.02
2022-11-21T03:47:21.324Z,20.02
2022-11-21T03:49:47.528Z,21.10
2022-11-21T03:52:13.850Z,20.92
2022-11-21T03:54:40.299Z,20.48
2022-11-21T03:57:07.028Z,19.77
2022-11-21T03:59:33.340Z,20.70
2022-11-21T04:01:59.642Z,21.95
2022-11-21T04:04:26.479Z,21.88
2022-11-21T04:06:52.949Z,20.70
2022-11-21T04:09:19.245Z,19.92
2022-11-21T04:11:45.719Z,20.52
2022-11-21T04:14:11.991Z,20.58
2022-11-21T04:16:38.281Z,19.63
2022-11-21T04:19:04.823Z,19.98
2022-11-21T04:21:31.129Z,21.02
2022-11-21T04:23:57.544Z,20.27
2022-11-21T04:26:23.823Z,20.67
2022-11-21T04:28:50.108Z,18.00
2022-11-21T04:31:16.367Z,22.15
2022-11-21T04:33:42.674Z,20.27
2022-11-21T04:36:09.035Z,21.98
2022-11-21T04:38:35.286Z,19.08
2022-11-21T04:41:01.583Z,17.98
2022-11-21T04:43:27.873Z,20.05
2022-11-21T04:45:54.362Z,19.58
2022-11-21T04:48:20.725Z,19.35
2022-11-21T04:50:47.086Z,20.88
2022-11-21T04:53:13.522Z,19.50
2022-11-21T04:55:39.786Z,20.30
2022-11-21T04:58:06.038Z,21.33
2022-11-21T05:00:32.325Z,18.92
2022-11-21T05:02:58.589Z,18.80
2022-11-21T05:05:25.082Z,20.75
2022-11-21T05:07:51.354Z,19.17
2022-11-21T05:10:17.573Z,19.40
2022-11-21T05:12:43.814Z,18.23
2022-11-21T05:15:10.037Z,18.50
2022-11-21T05:17:36.309Z,20.20
2022-11-21T05:20:02.580Z,18.67
2022-11-21T05:22:28.939Z,17.88
2022-11-21T05:24:55.224Z,19.58
2022-11-21T05:27:21.566Z,17.73
2022-11-21T05:29:47.864Z,19.17
2022-11-21T05:32:14.425Z,20.80
2022-11-21T05:34:40.750Z,18.88
2022-11-21T05:37:07.015Z,20.48
2022-11-21T05:39:33.304Z,19.70
2022-11-21T05:42:02.939Z,18.95
2022-11-21T05:44:29.959Z,18.48
2022-11-21T05:46:56.492Z,21.35
2022-11-21T05:49:22.785Z,20.42
2022-11-21T05:51:49.126Z,18.77
2022-11-21T05:54:15.621Z,19.60
2022-11-21T05:56:41.911Z,20.55
2022-11-21T05:59:08.186Z,18.35
2022-11-21T06:01:34.543Z,20.48
2022-11-21T06:04:00.796Z,19.45
2022-11-21T06:06:27.044Z,20.52
2022-11-21T06:08:53.391Z,21.02
2022-11-21T06:11:19.641Z,19.70
2022-11-21T06:13:45.961Z,19.77
2022-11-21T06:16:12.376Z,18.35
2022-11-21T06:18:38.626Z,20.13
2022-11-21T06:21:05.091Z,19.38
2022-11-21T06:23:31.407Z,19.23
2022-11-21T06:25:57.651Z,20.92
2022-11-21T06:28:24.081Z,19.85
2022-11-21T06:30:50.475Z,21.38
2022-11-21T06:33:16.754Z,20.48
2022-11-21T06:35:43.077Z,21.45
2022-11-21T06:38:09.552Z,22.05
2022-11-21T06:40:35.854Z,21.55
2022-11-21T06:43:02.273Z,21.00
2022-11-21T06:45:28.570Z,20.67
2022-11-21T06:47:54.879Z,22.35
2022-11-21T06:50:21.315Z,24.23
2022-11-21T06:52:47.553Z,22.30
2022-11-21T06:55:13.771Z,21.75
2022-11-21T06:57:40.461Z,21.85
2022-11-21T07:00:06.680Z,22.48
2022-11-21T07:02:33.138Z,21.63
2022-11-21T07:04:59.711Z,20.00
2022-11-21T07:07:25.995Z,24.92
2022-11-21T07:09:52.354Z,23.02
2022-11-21T07:12:18.692Z,23.23
2022-11-21T07:14:44.997Z,21.73
2022-11-21T07:17:11.393Z,23.58
2022-11-21T07:19:40.851Z,23.42
2022-11-21T07:22:07.484Z,21.02
2022-11-21T07:24:33.761Z,23.33
2022-11-21T07:27:00.133Z,22.30
2022-11-21T07:29:26.577Z,22.23
2022-11-21T07:31:53.067Z,22.33
2022-11-21T07:34:19.395Z,23.15
2022-11-21T07:36:46.062Z,24.27
2022-11-21T07:39:12.630Z,23.55
2022-11-21T07:41:38.968Z,23.00
2022-11-21T07:44:05.262Z,21.83
2022-11-21T07:46:31.653Z,22.38
2022-11-21T07:49:02.916Z,24.30
2022-11-21T07:51:29.709Z,24.95
2022-11-21T07:53:55.980Z,23.20
2022-11-21T07:56:22.366Z,21.25
2022-11-21T07:58:48.689Z,23.95
2022-11-21T08:01:14.925Z,23.70
2022-11-21T08:03:41.332Z,23.92
2022-11-21T08:06:07.567Z,24.05
2022-11-21T08:08:34.124Z,23.30
2022-11-21T08:11:00.466Z,23.63
2022-11-21T08:13:26.841Z,23.40
2022-11-21T08:15:53.101Z,22.45
2022-11-21T08:18:19.396Z,23.95
2022-11-21T08:20:45.693Z,26.55
2022-11-21T08:23:12.057Z,24.40
2022-11-21T08:25:38.350Z,23.40
2022-11-21T08:28:04.664Z,23.27
2022-11-21T08:30:30.951Z,23.73
2022-11-21T08:32:57.505Z,22.98
2022-11-21T08:35:23.780Z,24.25
2022-11-21T08:37:50.178Z,23.77
2022-11-21T08:40:16.428Z,25.33
2022-11-21T08:42:42.851Z,25.63
2022-11-21T08:45:09.303Z,24.13
2022-11-21T08:47:35.582Z,24.45
2022-11-21T08:50:07.415Z,25.13
2022-11-21T08:52:35.354Z,22.70
2022-11-21T08:55:01.633Z,23.10
2022-11-21T08:57:28.077Z,25.45
2022-11-21T08:59:54.516Z,24.55
2022-11-21T09:02:20.872Z,24.65
2022-11-21T09:04:47.192Z,24.40
2022-11-21T09:07:13.736Z,25.73
2022-11-21T09:09:40.039Z,22.88
2022-11-21T09:12:06.307Z,23.60
2022-11-21T09:14:32.579Z,23.92
2022-11-21T09:17:02.047Z,23.65
2022-11-21T09:19:29.121Z,21.35
2022-11-21T09:21:55.728Z,24.35
2022-11-21T09:24:22.044Z,22.10
2022-11-21T09:26:48.292Z,23.63
2022-11-21T09:29:14.620Z,23.15
2022-11-21T09:31:40.898Z,22.52
2022-11-21T09:34:07.199Z,22.92
2022-11-21T09:36:33.490Z,23.88
2022-11-21T09:38:59.787Z,23.98
2022-11-21T09:41:26.024Z,24.90
2022-11-21T09:43:55.712Z,23.23
2022-11-21T09:46:22.271Z,22.02
2022-11-21T09:48:48.559Z,25.75
2022-11-21T09:51:14.945Z,24.00
2022-11-21T09:53:41.237Z,24.60
2022-11-21T09:56:07.554Z,25.10
2022-11-21T09:58:33.789Z,25.27
2022-11-21T10:01:00.135Z,23.38
2022-11-21T10:03:26.426Z,24.83
2022-11-21T10:05:52.701Z,23.02
2022-11-21T10:08:19.078Z,27.17
2022-11-21T10:10:45.412Z,27.20
2022-11-21T10:13:11.681Z,24.95
2022-11-21T10:15:39.421Z,25.92
2022-11-21T10:18:06.469Z,24.48
2022-11-21T10:20:32.773Z,27.67
2022-11-21T10:22:59.085Z,25.52
2022-11-21T10:25:27.191Z,26.02
2022-11-21T10:27:54.053Z,22.98
2022-11-21T10:30:20.403Z,25.80
2022-11-21T10:32:46.844Z,25.55
2022-11-21T10:35:13.079Z,24.90
2022-11-21T10:37:39.345Z,24.63
2022-11-21T10:40:05.713Z,23.80
2022-11-21T10:42:32.101Z,23.20
2022-11-21T10:44:58.509Z,24.63
2022-11-21T10:47:24.841Z,23.25
2022-11-21T10:49:51.122Z,25.05
2022-11-21T10:52:17.424Z,22.70
2022-11-21T10:54:45.538Z,23.45
2022-11-21T10:57:12.065Z,21.17
2022-11-21T10:59:38.333Z,22.65
2022-11-21T11:02:04.801Z,23.50
2022-11-21T11:04:37.651Z,23.30
2022-11-21T11:07:10.895Z,23.23
2022-11-21T11:09:37.482Z,23.30
2022-11-21T11:12:03.861Z,19.33
2022-11-21T11:14:30.428Z,20.10
2022-11-21T11:16:56.830Z,22.33
2022-11-21T11:19:31.594Z,21.83
2022-11-21T11:22:00.524Z,20.75
2022-11-21T11:24:26.806Z,19.67
2022-11-21T11:26:53.177Z,20.48
2022-11-21T11:29:19.504Z,21.83
2022-11-21T11:31:46.156Z,21.33
2022-11-21T11:34:12.487Z,19.88
2022-11-21T11:36:38.785Z,20.83
2022-11-21T11:39:05.128Z,18.35
2022-11-21T11:41:31.441Z,20.92
2022-11-21T11:43:57.959Z,19.25
2022-11-21T11:46:24.305Z,19.98
2022-11-21T11:49:17.440Z,19.48
2022-11-21T11:51:36.818Z,17.90
2022-11-21T11:54:03.190Z,20.73
2022-11-21T11:56:29.575Z,19.58
2022-11-21T11:58:55.926Z,19.33
2022-11-21T12:01:22.365Z,19.83
2022-11-21T12:03:52.098Z,17.60
2022-11-21T12:06:28.441Z,20.85
2022-11-21T12:09:02.846Z,18.42
2022-11-21T12:11:29.304Z,21.10
2022-11-21T12:13:55.559Z,19.50
2022-11-21T12:16:21.779Z,17.27
2022-11-21T12:18:48.054Z,18.48
2022-11-21T12:21:14.364Z,18.63
2022-11-21T12:23:40.701Z,18.23
2022-11-21T12:26:07.149Z,18.65
2022-11-21T12:28:33.505Z,17.90
2022-11-21T12:31:00.155Z,19.02
2022-11-21T12:33:26.540Z,18.27
2022-11-21T12:35:52.956Z,18.05
2022-11-21T12:38:19.465Z,20.48
2022-11-21T12:40:45.804Z,17.45
2022-11-21T12:43:12.097Z,18.48
2022-11-21T12:45:38.408Z,18.65
2022-11-21T12:48:04.747Z,18.73
2022-11-21T12:50:31.020Z,18.08
2022-11-21T12:52:57.464Z,18.45
2022-11-21T12:55:23.777Z,17.95
2022-11-21T12:57:50.075Z,17.98
2022-11-21T13:00:16.436Z,16.98
2022-11-21T13:02:42.719Z,16.45
2022-11-21T13:05:09.048Z,19.23
2022-11-21T13:07:35.384Z,16.35
2022-11-21T13:10:02.302Z,17.10
2022-11-21T13:12:28.676Z,17.27
2022-11-21T13:14:55.013Z,17.77
2022-11-21T13:17:21.330Z,15.48
2022-11-21T13:19:47.567Z,16.52
2022-11-21T13:22:13.896Z,17.85
2022-11-21T13:24:40.160Z,18.48
2022-11-21T13:27:06.506Z,16.90
2022-11-21T13:29:32.760Z,17.23
2022-11-21T13:31:59.137Z,17.88
2022-11-21T13:34:25.676Z,17.38
2022-11-21T13:36:52.148Z,17.42
2022-11-21T13:39:18.484Z,16.33
2022-11-21T13:41:44.776Z,16.27
2022-11-21T13:44:11.090Z,17.88
2022-11-21T13:46:37.325Z,16.67
2022-11-21T13:49:03.665Z,16.58
2022-11-21T13:51:29.873Z,16.83
2022-11-21T13:53:58.490Z,16.38
2022-11-21T13:56:25.021Z,16.63
2022-11-21T13:58:51.334Z,18.63
2022-11-21T14:01:17.823Z,15.73
2022-11-21T14:03:44.154Z,15.95
2022-11-21T14:06:10.455Z,16.58
2022-11-21T14:08:36.714Z,16.85
2022-11-21T14:11:03.094Z,15.45
2022-11-21T14:13:29.797Z,16.65
2022-11-21T14:15:56.229Z,16.33
2022-11-21T14:18:22.680Z,16.58
2022-11-21T14:20:49.092Z,15.48
2022-11-21T14:23:15.426Z,17.58
2022-11-21T14:25:41.707Z,18.33
2022-11-21T14:28:08.174Z,16.55
2022-11-21T14:30:34.727Z,17.00
2022-11-21T14:33:01.156Z,15.13
2022-11-21T14:35:27.557Z,17.27
2022-11-21T14:37:53.995Z,17.15
2022-11-21T14:40:20.297Z,16.45
2022-11-21T14:42:47.170Z,16.25
2022-11-21T14:45:13.547Z,15.30
2022-11-21T14:47:39.836Z,17.55
2022-11-21T14:50:07.611Z,15.50
2022-11-21T14:52:34.084Z,17.05
2022-11-21T14:55:28.613Z,16.90
2022-11-21T14:57:46.754Z,15.40
2022-11-21T15:00:29.812Z,15.13
2022-11-21T15:02:59.491Z,16.95
2022-11-21T15:05:47.298Z,16.90
2022-11-21T15:08:42.230Z,16.98
2022-11-21T15:10:59.568Z,15.73
2022-11-21T15:13:39.515Z,18.65
2022-11-21T15:16:12.089Z,18.25
2022-11-21T15:18:38.321Z,17.58
2022-11-21T15:21:04.567Z,18.27
2022-11-21T15:23:30.834Z,17.17
2022-11-21T15:26:00.982Z,16.48
2022-11-21T15:28:28.066Z,16.65
2022-11-21T15:30:54.381Z,16.08
2022-11-21T15:33:20.766Z,15.38
2022-11-21T15:35:47.543Z,17.63
2022-11-21T15:38:13.800Z,15.98
2022-11-21T15:40:45.585Z,16.05
2022-11-21T15:43:13.004Z,15.88
2022-11-21T15:45:39.420Z,16.67
2022-11-21T15:48:06.146Z,16.63
2022-11-21T15:50:32.455Z,17.10
2022-11-21T15:52:58.782Z,14.75
2022-11-21T15:55:25.121Z,16.63
2022-11-21T15:57:51.370Z,15.00
2022-11-21T16:00:17.623Z,15.90
2022-11-21T16:02:43.928Z,15.13
2022-11-21T16:05:10.179Z,15.68
2022-11-21T16:07:36.507Z,14.68
2022-11-21T16:10:02.783Z,15.65
2022-11-21T16:12:29.122Z,17.80
2022-11-21T16:14:55.857Z,16.25
2022-11-21T16:17:22.118Z,16.88
2022-11-21T16:19:49.550Z,17.95
2022-11-21T16:22:15.925Z,16.67
2022-11-21T16:24:42.216Z,16.23
2022-11-21T16:27:08.498Z,16.98
2022-11-21T16:29:34.753Z,16.88
2022-11-21T16:32:01.075Z,16.83
2022-11-21T16:34:27.422Z,15.18
2022-11-21T16:36:53.682Z,16.13
2022-11-21T16:39:20.012Z,16.13
2022-11-21T16:41:46.265Z,18.58
2022-11-21T16:44:12.679Z,16.48
2022-11-21T16:46:38.998Z,17.95
2022-11-21T16:49:05.284Z,17.08
2022-11-21T16:51:31.556Z,15.63
2022-11-21T16:53:57.868Z,17.17
2022-11-21T16:56:24.212Z,15.90
2022-11-21T16:58:50.899Z,16.55
2022-11-21T17:01:17.244Z,16.63
2022-11-21T17:03:43.619Z,15.85
2022-11-21T17:06:09.889Z,16.13
2022-11-21T17:08:36.276Z,17.20
2022-11-21T17:11:02.610Z,16.83
2022-11-21T17:13:28.959Z,17.25
2022-11-21T17:15:55.353Z,15.68
2022-11-21T17:18:21.681Z,16.73
2022-11-21T17:20:48.007Z,15.48
2022-11-21T17:23:14.545Z,15.68
2022-11-21T17:25:40.857Z,15.60
2022-11-21T17:28:07.192Z,16.88
2022-11-21T17:30:33.528Z,17.02
2022-11-21T17:32:59.893Z,17.02
2022-11-21T17:35:26.162Z,14.60
2022-11-21T17:37:52.479Z,15.90
2022-11-21T17:40:18.745Z,15.88
2022-11-21T17:42:45.117Z,16.48
2022-11-21T17:45:11.448Z,16.33
2022-11-21T17:47:37.717Z,16.58
2022-11-21T17:50:06.203Z,15.85
2022-11-21T17:52:32.974Z,15.23
2022-11-21T17:54:59.257Z,16.77
2022-11-21T17:57:25.589Z,15.05
2022-11-21T17:59:51.915Z,16.17
2022-11-21T18:02:18.388Z,15.95
2022-11-21T18:04:44.890Z,16.25
2022-11-21T18:07:11.209Z,14.98
2022-11-21T18:09:37.668Z,15.57
2022-11-21T18:12:04.008Z,14.93
2022-11-21T18:14:30.488Z,15.88
2022-11-21T18:16:57.022Z,16.20
2022-11-21T18:19:23.259Z,18.58
2022-11-21T18:21:49.552Z,15.00
2022-11-21T18:24:15.947Z,17.02
2022-11-21T18:26:42.175Z,15.30
2022-11-21T18:31:55.131Z,15.65
2022-11-21T18:34:21.650Z,14.30
2022-11-21T18:36:47.929Z,16.05
2022-11-21T18:39:15.577Z,15.57
2022-11-21T18:41:42.272Z,14.60
2022-11-21T18:44:08.575Z,14.77
2022-11-21T18:46:34.877Z,14.35
2022-11-21T18:49:04.692Z,15.18
2022-11-21T18:51:32.457Z,16.33
2022-11-21T18:53:58.776Z,15.23
2022-11-21T18:56:25.055Z,13.60
2022-11-21T18:58:55.649Z,13.75
2022-11-21T19:01:24.780Z,15.07
2022-11-21T19:03:51.076Z,13.73
2022-11-21T19:06:17.630Z,14.15
2022-11-21T19:08:43.978Z,13.63
2022-11-21T19:11:10.280Z,14.85
2022-11-21T19:13:36.680Z,14.20
2022-11-21T19:16:02.957Z,12.38
2022-11-21T19:18:29.462Z,13.73
2022-11-21T19:20:55.720Z,13.88
2022-11-21T19:23:22.017Z,14.50
2022-11-21T19:25:48.341Z,13.70
2022-11-21T19:28:14.789Z,13.05
2022-11-21T19:30:41.136Z,14.00
2022-11-21T19:33:07.407Z,13.90
2022-11-21T19:35:33.690Z,13.55
2022-11-21T19:38:00.052Z,11.35
2022-11-21T19:40:26.332Z,13.85
2022-11-21T19:42:52.568Z,13.57
2022-11-21T19:45:18.884Z,12.45
2022-11-21T19:47:45.106Z,13.63
2022-11-21T19:50:11.437Z,13.73
2022-11-21T19:52:37.715Z,12.88
2022-11-21T19:55:04.112Z,12.43
2022-11-21T19:57:30.393Z,13.43
2022-11-21T19:59:56.715Z,13.18
2022-11-21T20:02:23.093Z,12.15
2022-11-21T20:04:49.385Z,11.57
2022-11-21T20:07:15.764Z,12.93
2022-11-21T20:09:42.042Z,12.23
2022-11-21T20:12:08.340Z,13.23
2022-11-21T20:14:34.565Z,13.07
2022-11-21T20:17:00.885Z,13.73
2022-11-21T20:19:27.817Z,12.32
2022-11-21T20:21:54.496Z,12.50
2022-11-21T20:24:21.043Z,12.82
2022-11-21T20:26:47.436Z,11.32
2022-11-21T20:29:13.701Z,11.35
2022-11-21T20:31:39.999Z,12.63
2022-11-21T20:34:06.408Z,11.05
2022-11-21T20:36:32.852Z,12.43
2022-11-21T20:38:59.114Z,11.95
2022-11-21T20:41:25.441Z,11.48
2022-11-21T20:46:38.001Z,12.02
2022-11-21T20:49:04.664Z,11.80
2022-11-21T20:54:17.411Z,11.55
2022-11-21T20:56:44.596Z,11.10
2022-11-21T20:59:11.063Z,11.02
2022-11-21T21:01:37.613Z,11.85
2022-11-21T21:04:03.919Z,12.07
2022-11-21T21:06:30.255Z,11.93
2022-11-21T21:08:56.837Z,11.95
2022-11-21T21:11:50.239Z,12.52
2022-11-21T21:14:09.406Z,11.93
2022-11-21T21:16:35.753Z,11.55
2022-11-21T21:19:02.041Z,10.95
2022-11-21T21:21:28.369Z,11.73
2022-11-21T21:23:54.917Z,12.02
2022-11-21T21:26:21.293Z,12.48
2022-11-21T21:28:47.897Z,12.10
2022-11-21T21:31:14.185Z,11.88
2022-11-21T21:33:40.440Z,11.23
2022-11-21T21:36:06.790Z,11.63
2022-11-21T21:38:33.204Z,11.98
2022-11-21T21:40:59.597Z,12.85
2022-11-21T21:43:25.872Z,12.90
2022-11-21T21:45:52.141Z,13.75
2022-11-21T21:48:18.471Z,10.10
2022-11-21T21:50:44.750Z,10.15
2022-11-21T21:53:11.076Z,11.85
2022-11-21T21:55:37.372Z,11.52
2022-11-21T21:58:03.762Z,11.60
2022-11-21T22:00:30.017Z,11.30
2022-11-21T22:02:56.532Z,11.40
2022-11-21T22:05:22.811Z,11.90
2022-11-21T22:07:49.263Z,10.32
2022-11-21T22:10:15.540Z,11.77
2022-11-21T22:12:44.208Z,10.90
2022-11-21T22:15:10.675Z,11.68
2022-11-21T22:17:37.015Z,10.52
2022-11-21T22:20:03.332Z,11.80
2022-11-21T22:22:30.754Z,10.73
2022-11-21T22:24:57.105Z,11.40
2022-11-21T22:27:23.436Z,11.43
2022-11-21T22:29:49.931Z,12.15
2022-11-21T22:32:19.644Z,10.73
2022-11-21T22:34:46.484Z,10.68
2022-11-21T22:37:12.741Z,10.80
2022-11-21T22:39:39.093Z,10.95
2022-11-21T22:42:05.352Z,12.73
2022-11-21T22:44:31.824Z,11.50
2022-11-21T22:46:58.463Z,12.88
2022-11-21T22:49:25.046Z,12.13
2022-11-21T22:51:51.336Z,12.00
2022-11-21T22:54:17.611Z,10.73
2022-11-21T22:56:44.037Z,10.82
2022-11-21T22:59:10.332Z,11.75
2022-11-21T23:01:36.632Z,12.32
2022-11-21T23:04:03.253Z,11.88
2022-11-21T23:06:29.886Z,12.45
2022-11-21T23:08:56.390Z,11.70
2022-11-21T23:11:23.104Z,11.90
2022-11-21T23:13:49.455Z,11.90
2022-11-21T23:16:16.285Z,11.23
2022-11-21T23:18:42.869Z,11.93
2022-11-21T23:21:09.259Z,11.70
2022-11-21T23:23:35.582Z,12.70
2022-11-21T23:26:02.048Z,12.63
2022-11-21T23:28:28.330Z,12.25
2022-11-21T23:30:54.630Z,12.20
2022-11-21T23:33:21.033Z,12.75
2022-11-21T23:35:47.408Z,11.70
2022-11-21T23:38:13.775Z,11.68
2022-11-21T23:40:40.133Z,12.60
2022-11-21T23:43:06.576Z,12.32
2022-11-21T23:45:32.898Z,14.32
2022-11-21T23:47:59.270Z,13.13
2022-11-21T23:50:25.508Z,13.23
2022-11-21T23:52:51.812Z,13.77
2022-11-21T23:55:18.183Z,13.65
2022-11-21T23:57:44.653Z,14.52
